createdAt,value
2023-02-14T08:05:14.693Z,21.80
2023-02-14T08:07:45.487Z,21.70
2023-02-14T08:10:14.852Z,21.70
2023-02-14T08:13:02.994Z,21.60
2023-02-14T08:15:53.819Z,21.50
2023-02-14T08:18:28.701Z,21.50
2023-02-14T08:20:58.673Z,21.40
2023-02-14T08:23:28.346Z,21.40
2023-02-14T08:25:57.985Z,21.30
2023-02-14T08:28:28.571Z,21.30
2023-02-14T08:30:58.525Z,21.20
2023-02-14T08:33:28.238Z,21.10
2023-02-14T08:35:57.868Z,21.10
2023-02-14T08:38:27.223Z,21.00
2023-02-14T08:40:56.788Z,20.90
2023-02-14T08:43:26.615Z,20.90
2023-02-14T08:45:55.990Z,20.80
2023-02-14T08:48:26.865Z,20.80
2023-02-14T08:50:56.247Z,20.80
2023-02-14T08:53:25.615Z,20.70
2023-02-14T08:55:55.646Z,20.60
2023-02-14T08:58:25.080Z,20.50
2023-02-14T09:00:54.563Z,20.50
2023-02-14T09:03:23.976Z,20.40
2023-02-14T09:05:53.748Z,20.40
2023-02-14T09:08:24.613Z,20.30
2023-02-14T09:10:54.088Z,20.30
2023-02-14T09:13:23.419Z,20.30
2023-02-14T09:15:52.980Z,20.20
2023-02-14T09:18:27.893Z,20.10
2023-02-14T09:20:57.505Z,20.10
2023-02-14T09:23:27.044Z,20.00
2023-02-14T09:26:04.920Z,19.90
2023-02-14T09:28:35.161Z,19.80
2023-02-14T09:31:12.690Z,19.80
2023-02-14T09:33:43.708Z,19.70
2023-02-14T09:36:31.085Z,19.70
2023-02-14T09:39:00.473Z,19.70
2023-02-14T09:41:32.998Z,19.60
2023-02-14T09:44:08.160Z,19.50
2023-02-14T09:46:42.006Z,19.50
2023-02-14T09:49:15.913Z,19.40
2023-02-14T09:51:49.035Z,19.40
2023-02-14T09:54:26.934Z,19.40
2023-02-14T09:57:00.331Z,19.40
2023-02-14T09:59:33.253Z,19.30
2023-02-14T16:58:43.644Z,17.30
2023-02-14T17:01:13.491Z,17.20
2023-02-14T17:03:44.493Z,17.20
2023-02-14T17:06:15.679Z,17.20
2023-02-14T17:08:45.834Z,17.20
2023-02-14T17:11:15.676Z,17.20
2023-02-14T17:13:46.339Z,17.20
2023-02-14T17:16:18.470Z,17.20
2023-02-14T17:18:50.411Z,17.20
2023-02-14T17:21:22.947Z,17.10
2023-02-14T17:23:53.038Z,17.10
2023-02-14T17:26:22.429Z,17.10
2023-02-14T17:28:51.775Z,17.10
2023-02-14T17:31:22.137Z,17.10
2023-02-14T17:33:51.537Z,17.10
2023-02-14T17:36:20.899Z,17.20
2023-02-14T17:38:50.276Z,17.20
2023-02-14T17:41:21.130Z,17.20
2023-02-14T17:43:50.821Z,17.20
2023-02-14T17:46:23.205Z,17.20
2023-02-14T17:48:52.569Z,17.20
2023-02-14T17:51:21.992Z,17.10
2023-02-14T17:53:53.076Z,17.20
2023-02-14T17:56:24.828Z,17.10
2023-02-14T17:58:55.005Z,17.10
2023-02-14T18:01:26.711Z,17.10
2023-02-14T18:03:56.690Z,17.10
2023-02-14T18:06:27.466Z,17.00
2023-02-14T18:09:00.566Z,17.10
2023-02-14T18:11:30.454Z,17.10
2023-02-14T18:14:01.265Z,17.00
2023-02-14T18:16:30.722Z,17.10
2023-02-14T18:19:00.113Z,17.10
2023-02-14T18:21:30.124Z,17.10
2023-02-14T18:24:02.373Z,17.10
2023-02-14T18:26:31.860Z,17.10
